createdAt,value
2019-05-15T00:01:40.976Z,61.36
2019-05-15T00:04:09.346Z,61.19
2019-05-15T00:06:39.051Z,61.56
2019-05-15T00:09:08.161Z,61.51
2019-05-15T00:11:38.784Z,61.71
2019-05-15T00:14:08.684Z,62.06
2019-05-15T00:16:38.689Z,62.06
2019-05-15T00:19:08.653Z,62.67
2019-05-15T00:21:38.240Z,62.36
2019-05-15T00:24:12.732Z,62.26
2019-05-15T00:26:38.563Z,61.52
2019-05-15T00:29:12.747Z,61.30
2019-05-15T00:31:38.729Z,60.33
2019-05-15T00:34:12.455Z,59.63
2019-05-15T00:36:38.374Z,59.44
2019-05-15T00:39:08.455Z,59.49
2019-05-15T00:41:48.371Z,58.88
2019-05-15T00:44:09.255Z,59.21
2019-05-15T00:46:38.410Z,59.08
2019-05-15T00:49:08.677Z,59.09
2019-05-15T00:51:39.040Z,59.44
2019-05-15T00:54:08.383Z,59.25
2019-05-15T00:56:38.949Z,59.54
2019-05-15T00:59:08.363Z,59.70
2019-05-15T01:01:38.205Z,59.51
2019-05-15T01:04:08.031Z,59.32
2019-05-15T01:06:38.770Z,59.19
2019-05-15T01:09:08.325Z,58.77
2019-05-15T01:11:38.175Z,58.90
2019-05-15T01:14:11.905Z,59.38
2019-05-15T01:16:38.332Z,60.18
2019-05-15T01:19:09.052Z,60.33
2019-05-15T01:21:38.547Z,60.07
2019-05-15T01:24:08.445Z,59.62
2019-05-15T01:26:38.529Z,60.08
2019-05-15T01:29:09.011Z,60.06
2019-05-15T01:31:38.067Z,59.82
2019-05-15T01:34:08.863Z,59.28
2019-05-15T01:36:38.241Z,59.07
2019-05-15T01:39:07.975Z,59.15
2019-05-15T01:41:38.465Z,58.98
2019-05-15T01:44:08.834Z,59.31
2019-05-15T01:46:39.373Z,59.47
2019-05-15T01:49:08.030Z,59.41
2019-05-15T01:51:38.378Z,59.70
2019-05-15T01:54:08.924Z,60.16
2019-05-15T01:56:38.749Z,60.11
2019-05-15T01:59:08.637Z,60.04
2019-05-15T02:01:39.178Z,59.73
2019-05-15T02:04:08.375Z,60.35
2019-05-15T02:06:39.144Z,60.35
2019-05-15T02:09:08.498Z,60.44
2019-05-15T02:11:38.249Z,60.22
2019-05-15T02:14:08.271Z,60.46
2019-05-15T02:16:39.126Z,60.55
2019-05-15T02:19:08.979Z,60.81
2019-05-15T02:21:38.010Z,60.79
2019-05-15T02:24:07.980Z,60.67
2019-05-15T02:26:38.670Z,60.68
2019-05-15T02:29:07.749Z,60.41
2019-05-15T02:31:39.139Z,60.09
2019-05-15T02:34:10.182Z,60.48
2019-05-15T02:36:40.112Z,60.57
2019-05-15T02:39:09.253Z,60.52
2019-05-15T02:41:39.715Z,60.67
2019-05-15T02:44:10.817Z,61.22
2019-05-15T02:46:39.229Z,61.75
2019-05-15T02:49:08.804Z,62.49
2019-05-15T02:51:39.899Z,62.49
2019-05-15T02:54:10.282Z,62.97
2019-05-15T02:56:39.208Z,63.73
2019-05-15T02:59:09.236Z,63.69
2019-05-15T03:01:40.535Z,63.29
2019-05-15T03:04:09.317Z,63.85
2019-05-15T03:06:38.923Z,63.82
2019-05-15T03:09:09.571Z,64.74
2019-05-15T03:11:40.758Z,64.61
2019-05-15T03:14:09.259Z,64.84
2019-05-15T03:16:39.490Z,64.92
2019-05-15T03:19:09.968Z,64.61
2019-05-15T03:21:38.944Z,64.55
2019-05-15T03:24:10.148Z,64.41
2019-05-15T03:26:39.474Z,64.17
2019-05-15T03:29:09.810Z,63.86
2019-05-15T03:31:52.969Z,63.97
2019-05-15T03:34:19.271Z,63.44
2019-05-15T03:36:44.279Z,63.77
2019-05-15T03:39:09.668Z,64.00
2019-05-15T03:41:39.261Z,63.59
2019-05-15T03:44:09.484Z,63.54
2019-05-15T03:46:39.878Z,63.39
2019-05-15T03:49:08.738Z,63.17
2019-05-15T03:51:42.496Z,62.73
2019-05-15T03:54:09.415Z,63.33
2019-05-15T03:56:39.236Z,64.39
2019-05-15T03:59:09.387Z,63.65
2019-05-15T04:01:43.280Z,62.81
2019-05-15T04:04:09.563Z,62.09
2019-05-15T04:06:39.158Z,59.34
2019-05-15T04:09:09.594Z,56.24
2019-05-15T04:11:38.806Z,54.64
2019-05-15T04:14:10.141Z,52.68
2019-05-15T04:16:39.067Z,51.29
2019-05-15T04:19:09.635Z,49.11
2019-05-15T04:21:43.933Z,48.34
2019-05-15T04:24:09.477Z,47.11
2019-05-15T04:26:39.579Z,46.34
2019-05-15T04:29:09.804Z,45.52
2019-05-15T04:31:51.879Z,43.71
2019-05-15T04:34:09.182Z,43.43
2019-05-15T04:36:39.614Z,42.31
2019-05-15T04:39:09.846Z,40.63
2019-05-15T04:41:39.463Z,40.04
2019-05-15T04:44:10.315Z,39.97
2019-05-15T04:46:39.630Z,40.70
2019-05-15T04:49:09.282Z,39.43
2019-05-15T04:51:39.010Z,38.18
2019-05-15T04:54:09.487Z,38.97
2019-05-15T04:56:39.937Z,38.62
2019-05-15T04:59:10.182Z,37.74
2019-05-15T05:01:40.239Z,37.38
2019-05-15T05:04:09.360Z,36.63
2019-05-15T05:06:38.834Z,36.84
2019-05-15T05:09:09.224Z,35.89
2019-05-15T05:11:38.508Z,35.51
2019-05-15T05:14:08.473Z,34.15
2019-05-15T05:16:39.321Z,34.77
2019-05-15T05:19:08.983Z,33.34
2019-05-15T05:21:38.558Z,34.47
2019-05-15T05:24:08.026Z,33.48
2019-05-15T05:26:38.208Z,32.62
2019-05-15T05:29:08.558Z,33.19
2019-05-15T05:31:39.102Z,33.71
2019-05-15T05:34:08.235Z,34.81
2019-05-15T05:36:38.634Z,39.43
2019-05-15T05:39:09.551Z,38.87
2019-05-15T05:41:39.159Z,39.36
2019-05-15T05:44:08.201Z,40.99
2019-05-15T05:46:36.700Z,39.26
2019-05-15T05:49:05.206Z,38.32
2019-05-15T05:51:33.655Z,41.09
2019-05-15T05:54:02.081Z,39.57
2019-05-15T05:56:30.498Z,37.23
2019-05-15T05:58:58.952Z,38.38
2019-05-15T06:01:28.237Z,34.67
2019-05-15T06:03:58.303Z,38.32
2019-05-15T06:06:29.203Z,36.49
2019-05-15T06:08:58.380Z,35.58
2019-05-15T06:11:27.791Z,35.95
2019-05-15T06:13:58.447Z,34.68
2019-05-15T06:16:28.313Z,37.82
2019-05-15T06:18:58.654Z,38.42
2019-05-15T06:21:28.525Z,36.58
2019-05-15T06:24:03.437Z,38.32
2019-05-15T06:26:28.275Z,38.72
2019-05-15T06:28:58.426Z,39.07
2019-05-15T06:31:28.099Z,42.42
2019-05-15T06:33:58.044Z,42.39
2019-05-15T06:36:28.821Z,46.31
2019-05-15T06:38:58.880Z,46.81
2019-05-15T06:41:28.656Z,47.34
2019-05-15T06:43:58.909Z,45.31
2019-05-15T06:46:28.142Z,44.52
2019-05-15T06:48:58.126Z,44.48
2019-05-15T06:51:28.717Z,44.44
2019-05-15T06:53:58.333Z,42.99
2019-05-15T06:56:28.168Z,42.41
2019-05-15T06:58:58.210Z,41.49
2019-05-15T07:01:29.267Z,39.46
2019-05-15T07:03:58.985Z,40.73
2019-05-15T07:06:28.656Z,40.58
2019-05-15T07:08:58.623Z,41.35
2019-05-15T07:11:28.215Z,39.54
2019-05-15T07:13:58.033Z,39.63
2019-05-15T07:16:28.400Z,40.81
2019-05-15T07:18:58.911Z,42.30
2019-05-15T07:21:28.484Z,41.07
2019-05-15T07:23:58.434Z,39.39
2019-05-15T07:26:28.998Z,39.16
2019-05-15T07:28:59.359Z,39.13
2019-05-15T07:31:28.878Z,38.97
2019-05-15T07:33:59.798Z,38.91
2019-05-15T07:36:28.781Z,36.40
2019-05-15T07:38:57.978Z,36.83
2019-05-15T07:41:28.453Z,33.45
2019-05-15T07:43:58.558Z,30.87
2019-05-15T07:46:28.898Z,31.95
2019-05-15T07:48:58.315Z,29.74
2019-05-15T07:51:28.662Z,32.58
2019-05-15T07:53:58.289Z,30.04
2019-05-15T07:56:28.901Z,29.92
2019-05-15T07:58:58.599Z,29.03
2019-05-15T08:01:29.098Z,28.34
2019-05-15T08:04:14.315Z,31.40
2019-05-15T08:06:28.982Z,31.13
2019-05-15T08:08:59.244Z,32.25
2019-05-15T08:11:28.520Z,34.41
2019-05-15T08:13:58.232Z,34.41
2019-05-15T08:16:28.658Z,32.71
2019-05-15T08:18:57.850Z,32.68
2019-05-15T08:21:26.309Z,32.76
2019-05-15T08:23:54.726Z,31.18
2019-05-15T08:26:23.143Z,31.51
2019-05-15T08:28:51.621Z,32.26
2019-05-15T08:31:20.047Z,28.34
2019-05-15T08:33:48.483Z,30.61
2019-05-15T08:36:18.392Z,29.98
2019-05-15T08:38:48.562Z,31.20
2019-05-15T08:41:18.501Z,30.15
2019-05-15T08:43:48.728Z,25.45
2019-05-15T08:46:18.653Z,24.55
2019-05-15T08:48:49.124Z,23.91
2019-05-15T08:51:19.324Z,25.15
2019-05-15T08:53:48.824Z,25.21
2019-05-15T08:56:19.386Z,25.74
2019-05-15T08:58:48.656Z,26.40
2019-05-15T09:01:18.102Z,24.08
2019-05-15T09:03:48.948Z,24.83
2019-05-15T09:06:20.550Z,25.44
2019-05-15T09:08:49.130Z,24.08
2019-05-15T09:11:19.264Z,22.92
2019-05-15T09:13:52.699Z,23.51
2019-05-15T09:16:18.538Z,24.70
2019-05-15T09:18:48.586Z,25.62
2019-05-15T09:21:19.212Z,26.69
2019-05-15T09:23:49.890Z,25.26
2019-05-15T09:26:19.401Z,27.25
2019-05-15T09:28:49.364Z,25.76
2019-05-15T09:31:19.306Z,23.53
2019-05-15T09:33:49.245Z,24.11
2019-05-15T09:36:20.082Z,27.70
2019-05-15T09:38:49.051Z,26.94
2019-05-15T09:41:17.966Z,25.25
2019-05-15T09:43:48.565Z,27.09
2019-05-15T09:46:18.568Z,25.68
2019-05-15T09:48:50.735Z,24.87
2019-05-15T09:51:18.311Z,25.58
2019-05-15T09:53:48.427Z,26.78
2019-05-15T09:56:18.646Z,25.46
2019-05-15T09:58:48.944Z,24.49
2019-05-15T10:01:19.667Z,24.20
2019-05-15T10:03:48.438Z,26.41
2019-05-15T10:06:20.121Z,27.08
2019-05-15T10:08:48.916Z,26.73
2019-05-15T10:11:19.624Z,23.59
2019-05-15T10:13:47.805Z,24.40
2019-05-15T10:16:19.561Z,24.53
2019-05-15T10:18:50.952Z,24.07
2019-05-15T10:21:18.655Z,23.63
2019-05-15T10:23:49.156Z,24.28
2019-05-15T10:26:19.362Z,23.55
2019-05-15T10:28:49.267Z,22.66
2019-05-15T10:31:19.543Z,25.23
2019-05-15T10:33:49.174Z,27.12
2019-05-15T10:36:18.860Z,25.31
2019-05-15T10:38:48.791Z,24.40
2019-05-15T10:41:18.850Z,23.16
2019-05-15T10:43:56.039Z,23.73
2019-05-15T10:46:19.026Z,22.11
2019-05-15T10:48:49.236Z,26.46
2019-05-15T10:51:19.496Z,26.13
2019-05-15T10:53:48.756Z,26.31
2019-05-15T10:56:18.616Z,26.60
2019-05-15T10:58:50.171Z,26.19
2019-05-15T11:01:19.251Z,24.87
2019-05-15T11:03:49.591Z,24.51
2019-05-15T11:06:18.418Z,25.92
2019-05-15T11:08:50.872Z,23.19
2019-05-15T11:11:18.357Z,26.35
2019-05-15T11:13:47.459Z,23.75
2019-05-15T11:16:18.672Z,22.98
2019-05-15T11:18:48.228Z,23.79
2019-05-15T11:21:19.034Z,23.58
2019-05-15T11:23:49.351Z,23.37
2019-05-15T11:26:19.488Z,23.06
2019-05-15T11:28:49.820Z,23.29
2019-05-15T11:31:18.577Z,26.04
2019-05-15T11:33:49.266Z,25.59
2019-05-15T11:36:18.500Z,24.95
2019-05-15T11:38:48.618Z,26.25
2019-05-15T11:41:19.147Z,25.78
2019-05-15T11:43:49.541Z,28.01
2019-05-15T11:46:18.622Z,26.83
2019-05-15T11:48:49.838Z,24.00
2019-05-15T11:51:18.478Z,26.54
2019-05-15T11:53:49.178Z,26.94
2019-05-15T11:56:18.916Z,23.61
2019-05-15T11:58:47.643Z,26.13
2019-05-15T12:01:18.623Z,24.46
2019-05-15T12:03:46.206Z,25.36
2019-05-15T12:06:18.914Z,24.09
2019-05-15T12:08:44.859Z,27.13
2019-05-15T12:11:28.646Z,26.22
2019-05-15T12:13:43.381Z,24.93
2019-05-15T12:16:11.914Z,24.31
2019-05-15T12:18:40.359Z,23.96
2019-05-15T12:21:09.003Z,23.66
2019-05-15T12:23:38.740Z,23.74
2019-05-15T12:26:08.998Z,23.77
2019-05-15T12:28:40.734Z,25.55
2019-05-15T12:31:08.998Z,24.06
2019-05-15T12:33:38.452Z,24.97
2019-05-15T12:36:10.428Z,25.81
2019-05-15T12:38:39.988Z,23.75
2019-05-15T13:01:17.066Z,26.70
2019-05-15T13:03:38.810Z,25.49
2019-05-15T13:06:08.133Z,27.05
2019-05-15T13:08:38.457Z,23.60
2019-05-15T13:11:09.746Z,24.53
2019-05-15T13:13:37.768Z,25.50
2019-05-15T13:16:06.367Z,28.17
2019-05-15T13:18:34.779Z,23.86
2019-05-15T13:21:03.183Z,25.59
2019-05-15T13:23:31.690Z,24.70
2019-05-15T13:26:00.167Z,25.05
2019-05-15T13:28:29.179Z,27.19
2019-05-15T13:30:59.655Z,26.74
2019-05-15T13:33:27.917Z,23.78
2019-05-15T13:35:58.492Z,24.96
2019-05-15T13:38:28.748Z,26.89
2019-05-15T13:40:58.931Z,24.61
2019-05-15T13:43:29.076Z,27.49
2019-05-15T13:45:58.331Z,26.97
2019-05-15T13:48:29.245Z,27.05
2019-05-15T13:50:58.993Z,28.54
2019-05-15T13:53:27.958Z,28.50
2019-05-15T13:55:56.442Z,27.95
2019-05-15T13:58:24.875Z,29.39
2019-05-15T14:00:53.437Z,28.05
2019-05-15T14:03:22.397Z,30.48
2019-05-15T14:05:50.848Z,30.28
2019-05-15T14:08:19.277Z,30.21
2019-05-15T14:10:48.716Z,30.12
2019-05-15T14:13:18.905Z,30.69
2019-05-15T14:15:48.814Z,30.91
2019-05-15T14:18:19.810Z,32.59
2019-05-15T14:20:49.038Z,29.32
2019-05-15T14:23:18.604Z,30.43
2019-05-15T14:25:48.239Z,27.81
2019-05-15T14:28:18.851Z,30.33
2019-05-15T14:30:46.892Z,30.37
2019-05-15T14:33:15.274Z,30.92
2019-05-15T14:35:43.984Z,29.70
2019-05-15T14:38:12.398Z,29.07
2019-05-15T14:40:40.834Z,27.94
2019-05-15T14:43:09.277Z,27.94
2019-05-15T14:45:38.807Z,28.36
2019-05-15T14:48:08.926Z,29.00
2019-05-15T14:50:38.430Z,31.42
2019-05-15T14:53:09.269Z,30.17
2019-05-15T14:55:43.252Z,30.46
2019-05-15T14:58:08.353Z,30.18
2019-05-15T15:00:40.396Z,32.78
2019-05-15T15:03:09.688Z,31.83
2019-05-15T15:05:38.808Z,32.07
2019-05-15T15:08:19.591Z,30.45
2019-05-15T15:10:38.403Z,32.04
2019-05-15T15:13:09.411Z,31.14
2019-05-15T15:15:37.974Z,32.72
2019-05-15T15:18:08.310Z,30.74
2019-05-15T15:20:38.092Z,32.39
2019-05-15T15:23:08.449Z,30.99
2019-05-15T15:25:39.569Z,31.79
2019-05-15T15:28:08.271Z,29.60
2019-05-15T15:30:38.482Z,28.53
2019-05-15T15:33:08.577Z,30.44
2019-05-15T15:35:38.323Z,30.06
2019-05-15T15:38:11.901Z,29.68
2019-05-15T15:40:38.853Z,30.39
2019-05-15T15:43:08.968Z,30.77
2019-05-15T15:45:39.183Z,31.25
2019-05-15T15:48:08.403Z,31.67
2019-05-15T15:50:38.313Z,32.18
2019-05-15T15:53:09.128Z,32.90
2019-05-15T15:55:38.618Z,31.74
2019-05-15T15:58:08.800Z,31.25
2019-05-15T16:00:38.352Z,32.07
2019-05-15T16:03:08.497Z,31.62
2019-05-15T16:05:38.390Z,30.49
2019-05-15T16:08:08.597Z,30.60
2019-05-15T16:10:37.902Z,31.34
2019-05-15T16:13:09.257Z,30.73
2019-05-15T16:15:38.815Z,30.38
2019-05-15T16:18:08.934Z,32.59
2019-05-15T16:20:39.572Z,31.70
2019-05-15T16:23:08.343Z,31.23
2019-05-15T16:25:38.434Z,30.55
2019-05-15T16:28:08.752Z,31.63
2019-05-15T16:30:50.309Z,32.70
2019-05-15T16:33:09.533Z,32.23
2019-05-15T16:35:38.481Z,33.78
2019-05-15T16:38:09.396Z,33.15
2019-05-15T16:40:38.314Z,33.98
2019-05-15T16:43:06.982Z,33.97
2019-05-15T16:45:38.532Z,33.60
2019-05-15T16:48:05.657Z,34.55
2019-05-15T16:50:34.072Z,33.24
2019-05-15T16:53:02.647Z,33.27
2019-05-15T16:55:31.332Z,32.24
2019-05-15T16:57:59.735Z,32.61
2019-05-15T17:00:29.292Z,33.34
2019-05-15T17:03:09.140Z,33.78
2019-05-15T17:05:29.065Z,34.17
2019-05-15T17:07:58.291Z,33.06
2019-05-15T17:10:28.155Z,33.18
2019-05-15T17:12:58.268Z,32.88
2019-05-15T17:15:27.982Z,32.71
2019-05-15T17:17:58.247Z,32.83
2019-05-15T17:20:28.438Z,34.50
2019-05-15T17:22:57.883Z,34.04
2019-05-15T17:25:26.511Z,32.55
2019-05-15T17:27:54.910Z,34.76
2019-05-15T17:30:23.497Z,35.73
2019-05-15T17:32:52.188Z,34.62
2019-05-15T17:35:21.143Z,35.58
2019-05-15T17:37:49.645Z,34.77
2019-05-15T17:40:18.452Z,34.34
2019-05-15T17:42:49.289Z,35.62
2019-05-15T17:45:19.335Z,35.47
2019-05-15T17:47:48.804Z,34.53
2019-05-15T17:50:19.108Z,35.30
2019-05-15T17:52:49.171Z,35.85
2019-05-15T17:55:18.472Z,35.92
2019-05-15T17:57:57.071Z,35.56
2019-05-15T18:00:20.377Z,35.85
2019-05-15T18:02:50.879Z,36.55
2019-05-15T18:05:19.823Z,36.43
2019-05-15T18:07:48.904Z,36.21
2019-05-15T18:10:18.808Z,36.71
2019-05-15T18:12:48.845Z,36.34
2019-05-15T18:15:18.446Z,35.83
2019-05-15T18:17:48.097Z,37.21
2019-05-15T18:20:29.551Z,36.05
2019-05-15T18:22:59.260Z,35.46
2019-05-15T18:25:27.839Z,37.79
2019-05-15T18:27:59.462Z,37.24
2019-05-15T18:30:28.529Z,38.00
2019-05-15T18:32:58.771Z,37.04
2019-05-15T18:35:29.477Z,38.12
2019-05-15T18:37:59.328Z,38.71
2019-05-15T18:40:28.959Z,37.15
2019-05-15T18:42:59.203Z,37.08
2019-05-15T18:45:29.063Z,37.81
2019-05-15T18:47:58.747Z,37.82
2019-05-15T18:50:28.474Z,38.63
2019-05-15T18:52:58.368Z,37.83
2019-05-15T18:55:27.484Z,38.56
2019-05-15T18:57:58.222Z,39.11
2019-05-15T19:00:29.218Z,39.09
2019-05-15T19:02:59.225Z,39.40
2019-05-15T19:05:28.144Z,39.40
2019-05-15T19:07:57.997Z,39.93
2019-05-15T19:10:28.176Z,39.92
2019-05-15T19:12:58.218Z,40.14
2019-05-15T19:15:28.749Z,40.29
2019-05-15T19:17:58.648Z,40.28
2019-05-15T19:20:28.067Z,40.96
2019-05-15T19:22:58.959Z,41.04
2019-05-15T19:25:28.567Z,41.46
2019-05-15T19:27:57.400Z,41.46
2019-05-15T19:30:28.667Z,41.81
2019-05-15T19:32:58.510Z,42.15
2019-05-15T19:35:28.096Z,42.61
2019-05-15T19:37:58.500Z,42.46
2019-05-15T19:40:28.448Z,42.44
2019-05-15T19:42:58.958Z,43.17
2019-05-15T19:45:28.189Z,43.15
2019-05-15T19:47:58.799Z,42.64
2019-05-15T19:50:29.044Z,43.26
2019-05-15T19:52:59.218Z,43.26
2019-05-15T19:55:27.759Z,42.67
2019-05-15T19:57:58.567Z,42.94
2019-05-15T20:00:28.586Z,43.67
2019-05-15T20:02:58.193Z,43.67
2019-05-15T20:05:28.985Z,43.18
2019-05-15T20:07:58.814Z,43.42
2019-05-15T20:10:29.274Z,43.63
2019-05-15T20:12:58.478Z,43.94
2019-05-15T20:15:28.569Z,44.74
2019-05-15T20:17:57.517Z,44.58
2019-05-15T20:20:28.020Z,45.35
2019-05-15T20:22:59.393Z,45.34
2019-05-15T20:25:27.775Z,44.60
2019-05-15T20:27:56.450Z,44.29
2019-05-15T20:30:24.887Z,44.45
2019-05-15T20:32:53.320Z,44.56
2019-05-15T20:35:22.251Z,45.35
2019-05-15T20:37:50.958Z,45.82
2019-05-15T20:40:19.482Z,45.88
2019-05-15T20:42:48.469Z,45.80
2019-05-15T20:45:18.464Z,45.90
2019-05-15T20:47:47.062Z,45.96
2019-05-15T20:50:15.553Z,46.04
2019-05-15T20:52:43.939Z,45.94
2019-05-15T20:55:13.209Z,47.75
2019-05-15T20:57:41.606Z,50.72
2019-05-15T21:00:13.011Z,50.22
2019-05-15T21:02:41.450Z,50.36
2019-05-15T21:05:10.064Z,51.45
2019-05-15T21:07:42.295Z,50.33
2019-05-15T21:10:10.444Z,49.93
2019-05-15T21:12:41.181Z,49.73
2019-05-15T21:15:09.896Z,49.68
2019-05-15T21:17:40.006Z,49.75
2019-05-15T21:20:09.693Z,48.63
2019-05-15T21:22:40.390Z,49.11
2019-05-15T21:25:10.744Z,50.65
2019-05-15T21:27:42.645Z,49.49
2019-05-15T21:30:10.190Z,50.00
2019-05-15T21:32:38.596Z,49.65
2019-05-15T21:35:09.088Z,50.51
2019-05-15T21:37:38.949Z,51.00
2019-05-15T21:40:09.347Z,50.86
2019-05-15T21:42:38.899Z,51.34
2019-05-15T21:45:14.198Z,51.97
2019-05-15T21:47:39.531Z,51.86
2019-05-15T21:50:08.514Z,51.99
2019-05-15T21:52:39.070Z,51.94
2019-05-15T21:55:09.300Z,51.84
2019-05-15T21:57:40.270Z,51.17
2019-05-15T22:00:11.368Z,51.35
2019-05-15T22:02:40.055Z,51.47
2019-05-15T22:05:08.832Z,52.09
2019-05-15T22:07:38.841Z,51.71
2019-05-15T22:10:10.581Z,51.78
2019-05-15T22:12:38.134Z,51.71
2019-05-15T22:15:08.938Z,51.91
2019-05-15T22:17:38.694Z,51.57
2019-05-15T22:20:08.870Z,51.63
2019-05-15T22:22:37.249Z,52.15
2019-05-15T22:25:11.198Z,52.50
2019-05-15T22:27:39.102Z,52.40
2019-05-15T22:30:08.397Z,52.23
2019-05-15T22:32:41.266Z,52.67
2019-05-15T22:35:13.285Z,52.09
2019-05-15T22:37:41.516Z,53.16
2019-05-15T22:40:10.107Z,53.11
2019-05-15T22:42:39.201Z,53.10
2019-05-15T22:45:11.618Z,53.35
2019-05-15T22:47:39.168Z,52.87
2019-05-15T22:50:08.503Z,52.84
2019-05-15T22:52:38.932Z,53.07
2019-05-15T22:55:09.336Z,53.06
2019-05-15T22:57:38.848Z,52.96
2019-05-15T23:00:08.747Z,53.08
2019-05-15T23:02:37.470Z,53.05
2019-05-15T23:05:23.073Z,53.00
2019-05-15T23:07:38.915Z,52.92
2019-05-15T23:10:09.082Z,53.11
2019-05-15T23:12:38.237Z,53.24
2019-05-15T23:15:08.617Z,52.96
2019-05-15T23:17:38.348Z,53.02
2019-05-15T23:20:09.196Z,53.47
2019-05-15T23:22:38.503Z,53.64
2019-05-15T23:25:08.042Z,54.02
2019-05-15T23:27:38.134Z,54.37
2019-05-15T23:30:09.093Z,55.17
2019-05-15T23:32:39.236Z,55.61
2019-05-15T23:35:07.757Z,55.83
2019-05-15T23:37:39.053Z,55.88
2019-05-15T23:40:08.755Z,56.27
2019-05-15T23:42:39.142Z,55.86
2019-05-15T23:45:08.249Z,56.03
2019-05-15T23:47:38.349Z,56.35
2019-05-15T23:50:07.700Z,56.79
2019-05-15T23:52:38.309Z,57.00
2019-05-15T23:55:08.540Z,57.05
2019-05-15T23:57:39.235Z,56.90
